createdAt,value
2018-03-21T00:03:28.400Z,8.07
2018-03-21T00:08:31.906Z,8.57
2018-03-21T00:13:36.350Z,7.93
2018-03-21T00:18:39.848Z,7.13
2018-03-21T00:23:42.965Z,8.20
2018-03-21T00:28:46.464Z,9.83
2018-03-21T00:33:49.948Z,9.23
2018-03-21T00:38:53.081Z,9.47
2018-03-21T00:43:56.557Z,7.30
2018-03-21T00:49:00.041Z,7.53
2018-03-21T00:54:03.528Z,7.07
2018-03-21T00:59:07.979Z,7.03
2018-03-21T01:04:11.476Z,11.37
2018-03-21T01:09:15.697Z,8.82
2018-03-21T01:14:19.928Z,9.75
2018-03-21T01:19:24.360Z,10.77
2018-03-21T01:24:28.985Z,9.43
2018-03-21T01:29:32.088Z,7.60
2018-03-21T01:34:36.313Z,6.63
2018-03-21T01:39:40.772Z,7.40
2018-03-21T01:44:45.188Z,6.30
2018-03-21T01:49:48.293Z,7.07
2018-03-21T01:54:52.144Z,8.63
2018-03-21T01:59:55.267Z,7.80
2018-03-21T02:04:59.124Z,6.33
2018-03-21T02:10:02.613Z,5.33
2018-03-21T02:15:07.224Z,6.40
2018-03-21T02:20:10.323Z,6.33
2018-03-21T02:25:13.432Z,6.23
2018-03-21T02:30:16.536Z,6.60
2018-03-21T02:35:19.689Z,7.33
2018-03-21T02:40:24.108Z,5.67
2018-03-21T02:45:27.974Z,8.43
2018-03-21T02:50:31.477Z,6.17
2018-03-21T02:55:34.588Z,7.63
2018-03-21T03:00:39.172Z,7.27
2018-03-21T03:05:43.421Z,7.20
2018-03-21T03:10:46.522Z,7.13
2018-03-21T03:15:51.129Z,6.97
2018-03-21T03:20:54.611Z,7.17
2018-03-21T03:25:59.064Z,9.97
2018-03-21T03:31:02.941Z,10.97
2018-03-21T03:36:07.542Z,6.90
2018-03-21T03:41:11.056Z,6.43
2018-03-21T03:46:15.287Z,8.33
2018-03-21T03:51:19.529Z,8.77
2018-03-21T03:56:23.988Z,6.57
2018-03-21T04:01:28.013Z,7.30
2018-03-21T04:06:32.463Z,6.90
2018-03-21T04:11:35.568Z,9.47
2018-03-21T04:16:39.068Z,8.10
2018-03-21T04:21:42.571Z,11.00
2018-03-21T04:26:46.436Z,7.43
2018-03-21T04:31:51.055Z,10.97
2018-03-21T04:37:04.152Z,6.23
2018-03-21T04:42:08.618Z,12.03
2018-03-21T04:47:13.224Z,7.97
2018-03-21T04:52:17.714Z,7.20
2018-03-21T04:57:21.224Z,8.10
2018-03-21T05:02:25.097Z,7.57
2018-03-21T05:07:29.564Z,7.93
2018-03-21T05:12:34.015Z,9.57
2018-03-21T05:17:37.108Z,11.03
2018-03-21T05:22:40.207Z,9.03
2018-03-21T05:27:43.308Z,8.60
2018-03-21T05:32:46.403Z,9.83
2018-03-21T05:37:50.854Z,7.60
2018-03-21T05:42:54.372Z,10.32
2018-03-21T05:47:58.604Z,10.27
2018-03-21T05:53:02.440Z,7.80
2018-03-21T05:58:06.251Z,8.00
2018-03-21T06:03:10.716Z,9.10
2018-03-21T06:08:13.816Z,7.60
2018-03-21T06:13:16.920Z,13.13
2018-03-21T06:18:20.034Z,8.33
2018-03-21T06:23:24.482Z,9.57
2018-03-21T06:28:27.555Z,7.23
2018-03-21T06:33:30.633Z,8.60
2018-03-21T06:38:33.721Z,7.53
2018-03-21T06:43:37.572Z,6.43
2018-03-21T06:48:41.422Z,9.70
2018-03-21T06:53:45.847Z,9.93
2018-03-21T06:58:48.935Z,8.25
2018-03-21T07:03:52.415Z,6.63
2018-03-21T07:08:55.491Z,12.43
2018-03-21T07:14:16.475Z,7.50
2018-03-21T07:19:19.575Z,7.67
2018-03-21T07:24:23.048Z,14.97
2018-03-21T07:29:26.144Z,9.27
2018-03-21T07:34:29.231Z,10.10
2018-03-21T07:39:33.683Z,11.37
2018-03-21T07:44:36.784Z,10.48
2018-03-21T07:49:40.300Z,10.10
2018-03-21T07:54:45.884Z,10.37
2018-03-21T07:59:49.084Z,7.35
2018-03-21T08:04:52.563Z,10.23
2018-03-21T08:09:56.091Z,9.80
2018-03-21T08:15:00.011Z,9.17
2018-03-21T08:20:03.102Z,10.68
2018-03-21T08:25:06.623Z,11.77
2018-03-21T08:30:10.448Z,12.10
2018-03-21T08:35:14.308Z,10.47
2018-03-21T08:40:18.558Z,11.47
2018-03-21T08:45:21.652Z,11.13
2018-03-21T08:50:25.529Z,11.87
2018-03-21T08:55:28.713Z,13.07
2018-03-21T09:00:32.576Z,11.57
2018-03-21T09:05:37.072Z,11.50
2018-03-21T09:10:40.161Z,12.05
2018-03-21T09:15:43.255Z,12.98
2018-03-21T09:20:47.123Z,22.13
2018-03-21T09:25:50.234Z,25.20
2018-03-21T09:30:53.751Z,29.75
2018-03-21T09:35:58.738Z,31.67
2018-03-21T09:41:07.062Z,48.93
2018-03-21T09:46:10.918Z,44.33
2018-03-21T09:51:14.197Z,50.43
2018-03-21T09:56:18.122Z,52.67
2018-03-21T10:01:22.377Z,53.20
2018-03-21T10:06:25.914Z,61.83
2018-03-21T10:11:28.988Z,67.80
2018-03-21T10:16:32.088Z,76.80
2018-03-21T10:21:35.934Z,72.63
2018-03-21T10:26:39.053Z,75.87
2018-03-21T10:31:42.156Z,72.83
2018-03-21T10:36:46.156Z,77.40
2018-03-21T10:41:51.700Z,75.90
2018-03-21T10:46:56.297Z,83.00
2018-03-21T10:52:00.785Z,81.72
2018-03-21T10:57:04.270Z,80.60
2018-03-21T11:02:13.677Z,78.50
2018-03-21T11:07:17.948Z,76.43
2018-03-21T11:12:21.052Z,84.43
2018-03-21T11:17:24.605Z,87.60
2018-03-21T11:22:27.748Z,76.90
2018-03-21T11:27:31.298Z,70.93
2018-03-21T11:32:35.210Z,78.47
2018-03-21T11:37:39.451Z,72.93
2018-03-21T11:42:43.886Z,71.63
2018-03-21T11:47:47.758Z,63.27
2018-03-21T11:52:50.844Z,63.40
2018-03-21T11:57:55.062Z,58.07
2018-03-21T12:02:58.548Z,52.63
2018-03-21T12:08:03.020Z,57.93
2018-03-21T12:13:06.101Z,50.77
2018-03-21T12:18:09.950Z,48.40
2018-03-21T12:23:14.160Z,55.87
2018-03-21T12:28:18.383Z,50.87
2018-03-21T12:33:22.627Z,45.93
2018-03-21T12:38:26.480Z,51.53
2018-03-21T12:43:29.613Z,49.00
2018-03-21T12:48:33.477Z,50.43
2018-03-21T12:53:37.898Z,43.40
2018-03-21T12:58:41.003Z,38.40
2018-03-21T13:03:46.367Z,37.07
2018-03-21T13:08:49.872Z,29.37
2018-03-21T13:13:54.343Z,41.57
2018-03-21T13:18:57.442Z,40.90
2018-03-21T13:24:01.279Z,39.23
2018-03-21T13:29:05.367Z,40.47
2018-03-21T13:34:08.483Z,41.20
2018-03-21T13:39:12.723Z,42.50
2018-03-21T13:44:17.487Z,41.57
2018-03-21T13:49:20.552Z,42.40
2018-03-21T13:54:23.645Z,42.70
2018-03-21T13:59:27.516Z,39.90
2018-03-21T14:04:31.980Z,40.17
2018-03-21T14:09:36.579Z,34.73
2018-03-21T14:14:39.720Z,36.57
2018-03-21T14:19:44.329Z,38.13
2018-03-21T14:24:48.494Z,38.77
2018-03-21T14:29:52.353Z,38.90
2018-03-21T14:34:56.584Z,35.87
2018-03-21T14:40:01.048Z,38.53
2018-03-21T14:45:04.940Z,44.33
2018-03-21T14:50:08.062Z,32.97
2018-03-21T14:55:11.148Z,37.67
2018-03-21T15:00:15.013Z,33.47
2018-03-21T15:05:18.889Z,35.80
2018-03-21T15:10:22.738Z,29.97
2018-03-21T15:15:27.200Z,35.57
2018-03-21T15:20:32.550Z,30.10
2018-03-21T15:25:35.645Z,28.42
2018-03-21T15:30:38.755Z,27.03
2018-03-21T15:35:41.869Z,33.73
2018-03-21T15:40:46.466Z,28.45
2018-03-21T15:45:49.602Z,22.20
2018-03-21T15:50:52.663Z,21.40
2018-03-21T15:55:55.751Z,25.50
2018-03-21T16:00:59.828Z,27.50
2018-03-21T16:06:03.684Z,27.53
2018-03-21T16:11:06.811Z,29.87
2018-03-21T16:16:09.915Z,19.97
2018-03-21T16:21:13.048Z,14.63
2018-03-21T16:26:16.103Z,19.87
2018-03-21T16:31:19.240Z,20.60
2018-03-21T16:36:22.341Z,18.83
2018-03-21T16:41:25.431Z,19.93
2018-03-21T16:46:28.923Z,23.90
2018-03-21T16:51:32.004Z,17.73
2018-03-21T16:56:35.084Z,19.30
2018-03-21T17:01:38.168Z,22.10
2018-03-21T17:06:42.618Z,16.17
2018-03-21T17:11:45.703Z,20.23
2018-03-21T17:16:48.845Z,20.33
2018-03-21T17:21:51.936Z,17.53
2018-03-21T17:26:55.013Z,16.43
2018-03-21T17:31:59.459Z,16.67
2018-03-21T17:37:02.562Z,16.77
2018-03-21T17:42:06.416Z,16.33
2018-03-21T17:47:10.879Z,22.40
2018-03-21T17:52:15.387Z,19.60
2018-03-21T17:57:19.819Z,18.03
2018-03-21T18:02:23.678Z,20.43
2018-03-21T18:07:26.777Z,18.50
2018-03-21T18:12:31.556Z,17.52
2018-03-21T18:17:36.994Z,18.57
2018-03-21T18:22:40.486Z,21.67
2018-03-21T18:27:44.694Z,22.70
2018-03-21T18:32:48.535Z,19.00
2018-03-21T18:37:52.418Z,20.83
2018-03-21T18:42:57.053Z,23.50
2018-03-21T18:48:00.465Z,21.70
2018-03-21T18:53:03.561Z,24.60
2018-03-21T18:58:07.424Z,28.10
2018-03-21T19:03:11.682Z,30.67
2018-03-21T19:08:16.285Z,32.27
2018-03-21T19:13:20.302Z,35.13
2018-03-21T19:18:22.490Z,32.10
2018-03-21T19:23:27.194Z,25.43
2018-03-21T19:28:31.052Z,20.52
2018-03-21T19:33:34.551Z,19.30
2018-03-21T19:38:38.412Z,17.53
2018-03-21T19:43:41.505Z,22.13
2018-03-21T19:48:44.631Z,23.53
2018-03-21T19:53:49.108Z,23.10
2018-03-21T19:58:52.202Z,26.90
2018-03-21T20:03:55.301Z,28.02
2018-03-21T20:08:58.793Z,23.17
2018-03-21T20:14:03.029Z,28.23
2018-03-21T20:19:06.133Z,26.70
2018-03-21T20:24:09.222Z,27.63
2018-03-21T20:29:12.331Z,35.28
2018-03-21T20:34:15.429Z,29.97
2018-03-21T20:39:19.868Z,31.57
2018-03-21T20:44:23.740Z,30.60
2018-03-21T20:49:28.901Z,29.90
2018-03-21T20:54:33.131Z,31.00
2018-03-21T20:59:36.991Z,29.47
2018-03-21T21:04:40.084Z,30.57
2018-03-21T21:09:44.539Z,31.63
2018-03-21T21:14:48.049Z,32.93
2018-03-21T21:19:51.145Z,31.33
2018-03-21T21:24:55.704Z,34.07
2018-03-21T21:30:00.400Z,30.67
2018-03-21T21:35:04.240Z,31.03
2018-03-21T21:40:08.852Z,31.97
2018-03-21T21:45:11.943Z,34.57
2018-03-21T21:50:16.392Z,32.70
2018-03-21T21:55:20.309Z,29.27
2018-03-21T22:00:23.424Z,33.07
2018-03-21T22:05:26.516Z,32.77
2018-03-21T22:10:30.963Z,29.20
2018-03-21T22:15:35.168Z,30.57
2018-03-21T22:20:39.359Z,32.50
2018-03-21T22:25:42.876Z,34.05
2018-03-21T22:30:46.353Z,27.47
2018-03-21T22:35:50.567Z,34.50
2018-03-21T22:40:53.652Z,37.73
2018-03-21T22:45:57.138Z,33.33
2018-03-21T22:51:00.228Z,36.27
2018-03-21T22:56:03.717Z,32.93
2018-03-21T23:01:08.154Z,39.03
2018-03-21T23:06:11.257Z,38.33
2018-03-21T23:11:16.823Z,40.00
2018-03-21T23:16:20.133Z,32.63
2018-03-21T23:21:23.628Z,35.05
2018-03-21T23:26:27.516Z,27.20
2018-03-21T23:31:30.592Z,37.07
2018-03-21T23:36:35.281Z,30.47
2018-03-21T23:41:38.764Z,30.50
2018-03-21T23:46:43.022Z,31.67
2018-03-21T23:51:47.480Z,29.33
2018-03-21T23:56:52.091Z,35.00
